Strona 1 z 4 1 2 3 ... OstatniOstatni
Pokaż wyniki od 1 do 20 z 67
Like Tree1Likes

Wątek: 2010.05.31 Wypadek polskiego samolotu Cirrus SR-22 SP-AVC w Bielefeld

  1. #1
    Awatar szerszen

    Dołączył
    Dec 2009
    Mieszka w
    WAW

    Domyślnie 2010.05.31 Wypadek polskiego samolotu Cirrus SR-22 SP-AVC w Bielefeld


    Polecamy

    Jak podaje gazeta.pl

    Około godz. 10.30 mały sportowy samolot, lecący z Polski rozbił się przy podchodzeniu do lądowania w mieście Bielefeld. Trzy osoby nie żyją, ranna kobieta została przewieziona do szpitala.

    Jak doniósł nam Alertowicz "m." na pokładzie były cztery osoby, trzy z nich nie żyją. Jedna kobieta została przewieziona do szpitala. Jest w stanie ciężkim.

    Informację potwierdzają lokalne niemieckie dzienniki, a także bild.de .
    Niemcy: Polski samolot rozbił się w okolicy Bielefeld, 3 osoby nie żyją.

    Drei Menschen sterben bei Absturz von Kleinflugzeug in Bielefeld - Ruhrgebiet - Ruhrgebiet - Bild.de

  2. #2

    Dołączył
    Jan 2010
    Mieszka w
    Radom

    Domyślnie

    Ze zdjęć wynika, że to Cirrus SR-22 SP-AVC
    Na zdjęciach widoczne są też chyba linki wyrzuconego spadochronu awaryjnego.

  3. #3
    Awatar mick

    Dołączył
    Feb 2007
    Mieszka w
    Luxemburg/Bolesławiec/Wrocław

    Domyślnie

    Cirrus SR-22 SP-AVC (Sky Share Club)
    UL986, UP861, UP733, UN869, LASIS-DIBED

  4. #4

    Dołączył
    Jul 2007
    Mieszka w
    Polska

    Domyślnie

    Ktos wie kto lecial?

  5. #5
    Awatar RafalP

    Dołączył
    Feb 2009
    Mieszka w
    Nowy Sącz

    Domyślnie

    Na zdjęciach widać, że CAPS był w użyciu - ale chyba za nisko niestety było...
    Ostatnio edytowane przez RafalP ; 31-05-2010 o 14:06

  6. #6
    Awatar wiler

    Dołączył
    Feb 2008
    Mieszka w
    EPZP/EPZG

    Domyślnie

    G. ponoć wraca do PL w AVD...
    Ostatnio edytowane przez wiler ; 31-05-2010 o 14:16

  7. #7
    Awatar RafalP

    Dołączył
    Feb 2009
    Mieszka w
    Nowy Sącz

    Domyślnie

    Samolot pilotowała kobieta.

  8. #8

    Dołączył
    Dec 2008
    Mieszka w
    KTW

    Domyślnie

    Cytat Zamieszczone przez RafalP Zobacz posta
    Samolot pilotowała kobieta.
    To potwierdzone info?

  9. #9
    Awatar szerszen

    Dołączył
    Dec 2009
    Mieszka w
    WAW

    Domyślnie

    Cytat Zamieszczone przez miłośnik z EPKM Zobacz posta
    To potwierdzone info?
    Raczej tak:

    Miejscowa policja potwierdziła, że wśród ofiar wypadku są pilotka samolotu i dwóch pasażerów. Jedna osoba przeżyła upadek, ale pozostaje w stanie zagrożenia życia. Kobieta została przewieziona do szpitala w Bielefeld, gdzie przejdzie operację.

    Według informacji dziennika bild.de , samolot rozbił się, podchodząc do lądowania na lotnisku Windelsbleiche pod Bielefeld. Rozbił się niedaleko zabudowań, ale nie ma ofiar wśród osób postronnych.

    Według informacji niemieckich mediów, pasażerowie samolotu byli pracownikami polskiej firmy i chcieli spotkać się na lotnisku ze swoim przełożonym.

    Przyczyny upadku maszyny badają eksperci komisji nadzoru lotów. W momencie wypadku nad Bielefeld była brzydka pogoda i padał deszcz.
    Ostatnio edytowane przez Staford ; 31-05-2010 o 15:19

  10. #10

    Dołączył
    Feb 2008
    Mieszka w
    EPWA

    Domyślnie

    EDLI - lotnisko nie oprzyrządowane, tylko VFR

    Bielefeld, DEU
    N 51° 57.9' E 08° 32.7' Magnetic Variation: 0.0°W
    Elevation: 454'

    Public, VFR, Landing Fee, Rotating Beacon, Customs
    Pattern Altitude: 946 feet AGL
    Fuel: 100LL, Mogas, Jet A-1

    Time Zone Info: GMT+1:00 uses DST

    EDLI Terminal Charts can be found in these coverage areas:
    VFR - Central Europe
    VFR - Europe
    VFR - Germany


    Pogoda dla EDDG - Munster/Osnabruck - ok 20 NM od EDLI

    EDDG 311020Z 29008KT 6000 FEW004 BKN006 12/11 Q1011 TEMPO 4000 BR BKN004=
    EDDG 310950Z 28007KT 7000 FEW004 BKN006 11/10 Q1011 TEMPO 2500 BR BKN004=
    EDDG 310920Z 27008KT 7000 SCT006 BKN009 11/10 Q1011 TEMPO 2500 BR BKN004=
    EDDG 310850Z 26010KT 9000 FEW007 SCT009 BKN010 11/10 Q1011 TEMPO 2500 BR BKN004=
    EDDG 310820Z 25009KT 9000 -RADZ FEW009 BKN012 BKN022 11/09 Q1010 NOSIG=
    EDDG 310750Z 26009KT 9999 -RA BKN013 BKN024 11/09 Q1010 NOSIG=
    EDDG 310720Z 27008KT 9999 FEW010 SCT012 BKN033 11/09 Q1010 NOSIG=
    EDDG 310650Z 27009KT 9999 FEW009 BKN014 BKN044 11/09 Q1009 NOSIG=
    EDDG 310620Z 27009KT 9999 FEW008 BKN011 BKN050 11/09 Q1009 TEMPO BKN007=
    EDDG 310550Z 26009KT 9999 FEW008 SCT010 BKN060 11/09 Q1009 NOSIG=
    EDDG 310520Z 26007KT 9999 SCT007 SCT060 10/09 Q1009 TEMPO BKN007=

    Szkoda ludzi, wiadomo co z Gauganem ?

  11. #11
    Awatar Bilson

    Dołączył
    May 2009
    Mieszka w
    EPGI, VN

    Domyślnie

    Wg tego co pisze Bild jednak nikt nie przeżył, czwarta kobieta zmarła w szpitalu

  12. #12
    KZ
    KZ jest nieaktywny
    Awatar KZ

    Dołączył
    Feb 2007
    Mieszka w
    Ambush Country

    Domyślnie

    SKYSHARE.PL -
    Dnia 31.05.2010 samolot Cirrus SR22 uległ wypadkowi w Niemczech pod Bielefeld. Lot odbywał się z Katowic, skąd samolot wystartował o godz. 7.30 do Bielefeld, gdzie miał zakończyć lot.
    Na pokładzie znajdowały się 4 osoby, w tym trzech przedstawicieli spółki będącej uczestnikiem programu Sky Share Club, korzystający z samolotu na zasadach przewidzianych w programie. Prawdopodobnie nikt nie przeżył.
    W tej chwili przedstawiciele firmy Sky Share są w drodze na miejsce wypadku.
    „Współczujemy rodzinom. Skontaktowaliśmy się z przedstawicielem klienta, który poinformował już rodziny. Poinformowaliśmy również rodzinę pilota. Jesteśmy również w kontakcie ze szpitalem, w którym znajduje się czwarta z osób. Nie są znane przyczyny wypadku, tym zajmuje się specjalna komisja w Niemczech. Zrobimy wszystko, aby pomóc w wyjaśnieniu okoliczności.” – informują przedstawiciele firmy.
    Samolot Cirrus SR22 (rok produkcji 2009) był sprawny, 18 maja w autoryzowanym centrum serwisowym Cirrusa w Niemczech przeszedł przez planowany serwis, gdzie uzyskał certyfikat dopuszczenia do użytkowania.
    Samolot pilotował zawodowy pilot instruktor.
    Ostatnio edytowane przez Gabec ; 31-05-2010 o 18:12 Powód: wstawiłem treść i przeredagowałem link
    KZ

  13. #13

  14. #14
    Awatar michalek

    Dołączył
    Feb 2007
    Mieszka w
    Sztokholm

    Domyślnie

    Ostatni sygnal ModeS oderbalem o 10:07

    AD0864 EPWR SPAVC 0 0 0 0 0 2010-05-31 08:35:55 123821558 1275287761 2010-05-31
    AD0864 EPWR 0 0 0 0 0 2010-05-31 08:37:45 123823337 1275287883 2010-05-31
    AD0864 NET2 SPAVC 0 0 0 0 0 2010-05-31 08:45:57 123828094 1275288362 2010-05-31
    AD0864 NET2 SPAVC 0 0 0 0 0 2010-05-31 08:51:17 123832678 1275288723 2010-05-31
    AD0864 NET2 SPAVC 0 0 0 0 0 2010-05-31 08:54:57 123835387 1275288963 2010-05-31
    AD0864 NET2 0 0 0 0 0 2010-05-31 08:57:17 123836442 1275289082 2010-05-31
    AD0864 NET2 SPAVC 0 0 0 0 0 2010-05-31 08:58:57 123837959 1275289203 2010-05-31
    AD0864 NET2 SPAVC 0 0 0 0 0 2010-05-31 09:02:47 123840592 1275289443 2010-05-31
    AD0864 NET2 0 0 0 0 0 2010-05-31 09:14:37 123848442 1275290163 2010-05-31
    AD0864 NET2 0 0 0 0 0 2010-05-31 09:16:37 123849779 1275290283 2010-05-31
    AD0864 NET2 0 0 0 0 0 2010-05-31 09:19:27 123850839 1275290403 2010-05-31
    AD0864 NET2 0 0 0 0 0 2010-05-31 09:22:47 123853672 1275290643 2010-05-31
    AD0864 EDDH SPAVC 0 0 0 0 0 2010-05-31 09:45:51 123867555 1275291962 2010-05-31
    AD0864 EDDH 0 0 0 0 0 2010-05-31 09:47:31 123869179 1275292083 2010-05-31
    AD0864 EDDH 0 0 0 0 0 2010-05-31 09:54:01 123872213 1275292441 2010-05-31
    AD0864 EDDH 0 0 0 0 0 2010-05-31 09:55:51 123874219 1275292562 2010-05-31
    AD0864 EDDH 0 0 0 0 0 2010-05-31 10:07:55 123881913 1275293282 2010-05-31

  15. #15

    Dołączył
    Jan 2010
    Mieszka w
    Radom

    Domyślnie

    Cytat Zamieszczone przez miłośnik z EPKM Zobacz posta
    To potwierdzone info?
    Tak. Za sterami siedziała koleżanka znana w naszym radomskim aeroklubie.

  16. #16

    Dołączył
    Oct 2008

    Domyślnie

    Bardzo przykra wiadomość...

    Czy jest w prasie mowa o naocznych świadkach wypadku?

  17. #17

    Dołączył
    Jun 2008
    Mieszka w
    Wrocław

    Domyślnie

    Najbardziej jak dotąd szczegółowe informacje na temat zdarzenia (w tym linku akurat dotyczące ofiar):

    http://www.polizei-nrw.de/presseport...04-84-171.html

    W odnośnikach na stronie głównej policji Bielefeld znajdziecie inne informacje.
    Tu z kolei multimedia:

    http://www.nw-news.de/lokale_news/bi...gestuerzt.html

    Ironią losu jest fakt,że polska maszyna rozbiła się w pobliżu ulicy ...Jeleniogórskiej.

  18. #18
    EBI
    EBI jest nieaktywny
    Awatar EBI

    Dołączył
    Apr 2010
    Mieszka w
    WAW

    Domyślnie

    Czy ktos z Zawodowcow moglby napisac czy Ś.P pilot tego samolotu tez powinienbyc szkolony na symulatorze? Jakie sa wymogi w Polsce?

  19. #19
    Awatar saturn5

    Dołączył
    Apr 2007
    Mieszka w
    Taurus-Littrow

    Domyślnie

    Cytat Zamieszczone przez EBI Zobacz posta
    Czy ktos z Zawodowcow moglby napisac czy Ś.P pilot tego samolotu tez powinienbyc szkolony na symulatorze?
    Dla tego typu samolotu raczej okresowe szkolenie symulatorowe nie jest ani wymagane ani powszechnie przyjete, szkolenie na prawdziwym samolocie bedzie nie wiele drozsze. Sa natomiast FTD (flight training devices) ktore dobrze odwzorowuje sama awionike i do tego sie je stosuje. Cirrus w swojej fabryce w Duluth ma taki FTD do poczatkowego zapoznania pilota z samolotem ale potem latasz juz na prawdziwym samolocie z instruktorem. Taki FTD moze byc tez przydatny jak brakuje ci tez odpowiednich wylatanych godzin IFR - w ten sposob mozesz sobie nabic potrzebne godziny i troche zaoszczedzisz w porownaniu do latania prawdziwym samolotem.
    Ostatnio edytowane przez saturn5 ; 31-05-2010 o 23:17

  20. #20
    EBI
    EBI jest nieaktywny
    Awatar EBI

    Dołączył
    Apr 2010
    Mieszka w
    WAW

    Domyślnie


    Polecamy

    wielkie dzieki

Strona 1 z 4 1 2 3 ... OstatniOstatni

LinkBacks (?)

  1. 03-10-2012, 18:23
  2. 10-02-2012, 18:15
  3. 27-11-2011, 23:38
  4. 20-11-2011, 12:58
  5. 15-11-2011, 10:47
  6. 14-11-2011, 17:22
  7. 14-11-2011, 14:20
  8. 14-11-2011, 07:09
  9. 14-11-2011, 06:42
  10. 13-11-2011, 22:23
  11. 13-11-2011, 22:16
  12. 13-11-2011, 21:57
  13. 13-11-2011, 21:20
  14. 13-11-2011, 20:28
  15. 13-11-2011, 20:28
  16. 22-03-2011, 10:08
  17. 19-02-2011, 00:22
  18. 29-08-2010, 22:19
  19. 02-06-2010, 20:20
  20. 01-06-2010, 08:09
  21. 31-05-2010, 18:39

Uprawnienia umieszczania postów

  • Nie możesz zakładać nowych tematów
  • Nie możesz pisać wiadomości
  • Nie możesz dodawać załączników
  • Nie możesz edytować swoich postów
  •